createdAt,value
2024-02-13T00:02:33.201Z,7.18
2024-02-13T00:07:40.801Z,7.22
2024-02-13T00:12:46.570Z,7.21
2024-02-13T00:17:52.844Z,7.20
2024-02-13T00:23:00.759Z,7.26
2024-02-13T00:28:07.409Z,7.28
2024-02-13T00:33:13.316Z,7.29
2024-02-13T00:38:19.045Z,7.26
2024-02-13T00:43:25.157Z,7.23
2024-02-13T00:48:32.615Z,7.24
2024-02-13T00:53:39.402Z,7.24
2024-02-13T00:58:47.023Z,7.27
2024-02-13T01:03:52.903Z,7.28
2024-02-13T01:08:58.887Z,7.24
2024-02-13T01:14:05.417Z,7.23
2024-02-13T01:19:11.216Z,7.23
2024-02-13T01:24:17.565Z,7.16
2024-02-13T01:29:23.981Z,7.15
2024-02-13T01:34:31.763Z,7.13
2024-02-13T01:39:37.430Z,7.01
2024-02-13T01:44:43.495Z,6.96
2024-02-13T01:49:49.952Z,6.91
2024-02-13T01:54:56.078Z,6.91
2024-02-13T02:00:02.035Z,6.85
2024-02-13T02:05:15.345Z,6.82
2024-02-13T02:10:21.287Z,6.76
2024-02-13T02:15:27.862Z,6.75
2024-02-13T02:20:33.790Z,6.76
2024-02-13T02:25:39.609Z,6.72
2024-02-13T02:30:46.885Z,6.76
2024-02-13T02:35:53.904Z,6.75
2024-02-13T02:40:59.689Z,6.74
2024-02-13T02:46:06.593Z,6.76
2024-02-13T02:51:12.467Z,6.75
2024-02-13T02:56:18.653Z,6.74
2024-02-13T03:01:26.019Z,6.73
2024-02-13T03:06:32.603Z,6.71
2024-02-13T03:11:38.462Z,6.67
2024-02-13T03:16:45.729Z,6.57
2024-02-13T03:21:51.489Z,6.46
2024-02-13T03:26:57.403Z,6.48
2024-02-13T03:32:03.118Z,6.26
2024-02-13T03:37:10.033Z,6.42
2024-02-13T03:42:17.642Z,6.59
2024-02-13T03:47:23.951Z,6.69
2024-02-13T03:52:30.283Z,6.68
2024-02-13T03:57:37.287Z,6.72
2024-02-13T04:02:43.106Z,6.73
2024-02-13T04:07:49.562Z,6.59
2024-02-13T04:12:55.330Z,6.61
2024-02-13T04:18:01.145Z,6.62
2024-02-13T04:23:07.499Z,6.72
2024-02-13T04:28:13.140Z,6.77
2024-02-13T04:33:19.955Z,6.81
2024-02-13T04:38:25.793Z,6.84
2024-02-13T04:43:31.662Z,6.83
2024-02-13T04:48:39.054Z,6.80
2024-02-13T04:53:45.065Z,6.76
2024-02-13T04:58:52.967Z,6.70
2024-02-13T05:04:18.512Z,6.73
2024-02-13T05:09:24.983Z,6.73
2024-02-13T05:14:32.108Z,6.67
2024-02-13T05:19:37.923Z,6.64
2024-02-13T05:24:43.562Z,6.57
2024-02-13T05:29:49.591Z,6.54
2024-02-13T05:34:57.001Z,6.52
2024-02-13T05:40:02.718Z,6.49
2024-02-13T05:45:09.210Z,6.45
2024-02-13T05:50:16.604Z,6.45
2024-02-13T05:55:22.428Z,6.43
2024-02-13T06:00:28.207Z,6.41
2024-02-13T06:05:34.226Z,6.40
2024-02-13T06:10:41.204Z,6.39
2024-02-13T06:15:47.379Z,6.37
2024-02-13T06:20:54.842Z,6.34
2024-02-13T06:26:01.050Z,6.28
2024-02-13T06:31:06.733Z,6.13
2024-02-13T06:36:12.493Z,6.06
2024-02-13T06:41:18.079Z,6.03
2024-02-13T06:46:24.024Z,5.99
2024-02-13T06:51:30.408Z,5.86
2024-02-13T06:56:37.663Z,5.93
2024-02-13T07:01:43.379Z,6.13
2024-02-13T07:06:59.406Z,6.32
2024-02-13T07:11:56.253Z,6.43
2024-02-13T07:17:02.152Z,6.49
2024-02-13T07:22:09.145Z,6.56
2024-02-13T07:27:16.435Z,6.70
2024-02-13T07:32:22.433Z,6.72
2024-02-13T07:37:28.321Z,6.92
2024-02-13T07:42:34.045Z,7.18
2024-02-13T07:47:40.924Z,7.27
2024-02-13T07:52:47.110Z,7.46
2024-02-13T07:57:54.520Z,7.63
2024-02-13T08:03:01.158Z,7.71
2024-02-13T08:08:10.196Z,7.73
2024-02-13T08:13:16.458Z,7.57
2024-02-13T08:18:22.964Z,7.22
2024-02-13T08:23:28.926Z,7.49
2024-02-13T08:28:34.683Z,7.97
2024-02-13T08:33:42.279Z,8.04
2024-02-13T08:38:48.192Z,8.33
2024-02-13T08:43:54.136Z,8.47
2024-02-13T08:49:00.120Z,8.65
2024-02-13T08:54:09.680Z,8.89
2024-02-13T08:59:15.525Z,9.12
2024-02-13T09:04:21.787Z,9.06
2024-02-13T09:09:28.406Z,9.11
2024-02-13T09:14:35.311Z,9.11
2024-02-13T09:19:42.712Z,9.12
2024-02-13T09:24:50.072Z,9.28
2024-02-13T09:29:56.547Z,9.36
2024-02-13T09:35:02.576Z,9.53
2024-02-13T09:40:14.319Z,9.65
2024-02-13T09:45:20.362Z,9.36
2024-02-13T09:50:30.653Z,9.18
2024-02-13T09:55:39.286Z,9.15
2024-02-13T10:00:45.338Z,9.28
2024-02-13T10:05:52.207Z,9.24
2024-02-13T10:11:06.689Z,9.52
2024-02-13T10:16:27.688Z,9.71
2024-02-13T10:21:35.260Z,9.80
2024-02-13T10:26:41.118Z,10.06
2024-02-13T10:31:46.903Z,10.36
2024-02-13T10:36:53.232Z,10.64
2024-02-13T10:42:00.598Z,10.86
2024-02-13T10:47:09.169Z,10.96
2024-02-13T10:52:15.475Z,10.89
2024-02-13T10:57:24.072Z,10.84
2024-02-13T11:02:32.092Z,10.87
2024-02-13T11:07:42.092Z,10.84
2024-02-13T11:12:46.826Z,10.92
2024-02-13T11:17:59.070Z,11.06
2024-02-13T11:23:04.895Z,11.17
2024-02-13T11:28:12.697Z,11.03
2024-02-13T11:33:21.898Z,11.20
2024-02-13T11:38:30.038Z,11.01
2024-02-13T11:43:35.736Z,10.85
2024-02-13T11:48:42.527Z,11.01
2024-02-13T11:53:48.995Z,10.89
2024-02-13T11:58:56.320Z,11.04
2024-02-13T12:04:02.915Z,11.40
2024-02-13T12:09:09.851Z,11.63
2024-02-13T12:14:16.025Z,11.47
2024-02-13T12:19:22.014Z,11.23
2024-02-13T12:24:27.829Z,10.80
2024-02-13T12:29:37.008Z,10.42
2024-02-13T12:34:43.711Z,10.56
2024-02-13T12:39:51.189Z,10.73
2024-02-13T12:44:58.623Z,10.91
2024-02-13T12:50:04.939Z,11.58
2024-02-13T12:55:12.612Z,11.35
2024-02-13T13:00:19.336Z,10.96
2024-02-13T13:05:26.594Z,10.83
2024-02-13T13:10:32.448Z,11.29
2024-02-13T13:15:39.735Z,11.36
2024-02-13T13:20:46.764Z,11.70
2024-02-13T13:25:56.697Z,10.95
2024-02-13T13:31:04.155Z,10.60
2024-02-13T13:36:10.399Z,9.93
2024-02-13T13:41:16.839Z,9.43
2024-02-13T13:46:22.555Z,9.25
2024-02-13T13:51:30.018Z,9.38
2024-02-13T13:56:35.676Z,9.74
2024-02-13T14:01:42.017Z,9.94
2024-02-13T14:06:47.798Z,9.72
2024-02-13T14:11:54.070Z,9.61
2024-02-13T14:17:01.584Z,9.47
2024-02-13T14:22:09.091Z,9.38
2024-02-13T14:27:15.066Z,9.20
2024-02-13T14:32:20.870Z,9.17
2024-02-13T14:37:27.028Z,9.14
2024-02-13T14:42:33.199Z,9.12
2024-02-13T14:47:39.665Z,8.87
2024-02-13T14:52:45.883Z,8.73
2024-02-13T14:58:00.841Z,8.56
2024-02-13T15:03:01.879Z,8.44
2024-02-13T15:08:07.968Z,8.36
2024-02-13T15:13:15.403Z,8.27
2024-02-13T15:18:22.938Z,8.34
2024-02-13T15:23:30.783Z,8.47
2024-02-13T15:28:36.970Z,8.47
2024-02-13T15:33:43.006Z,8.55
2024-02-13T15:39:07.218Z,8.56
2024-02-13T15:44:34.655Z,8.57
2024-02-13T15:49:42.424Z,8.56
2024-02-13T15:54:49.209Z,8.54
2024-02-13T15:59:55.052Z,8.50
2024-02-13T16:05:01.035Z,8.47
2024-02-13T16:10:09.987Z,8.42
2024-02-13T16:15:15.846Z,8.38
2024-02-13T16:20:23.722Z,8.33
2024-02-13T16:25:31.732Z,8.33
2024-02-13T16:30:37.653Z,8.28
2024-02-13T16:35:43.469Z,8.22
2024-02-13T16:40:49.506Z,8.17
2024-02-13T16:45:55.254Z,8.12
2024-02-13T16:51:01.100Z,8.04
2024-02-13T16:56:07.841Z,7.89
2024-02-13T17:01:13.670Z,7.67
2024-02-13T17:06:21.107Z,7.49
2024-02-13T17:11:26.994Z,7.44
2024-02-13T17:16:33.155Z,7.41
2024-02-13T17:21:38.931Z,7.25
2024-02-13T17:26:44.976Z,7.17
2024-02-13T17:31:51.901Z,7.18
2024-02-13T17:36:57.582Z,7.27
2024-02-13T17:42:04.984Z,7.36
2024-02-13T17:47:10.871Z,7.37
2024-02-13T17:52:16.547Z,7.39
2024-02-13T17:57:22.206Z,7.41
2024-02-13T18:02:28.099Z,7.40
2024-02-13T18:07:35.284Z,7.44
2024-02-13T18:12:44.418Z,7.45
2024-02-13T18:17:50.254Z,7.46
2024-02-13T18:22:58.447Z,7.50
2024-02-13T18:28:04.287Z,7.52
2024-02-13T18:33:10.829Z,7.55
2024-02-13T18:38:17.559Z,7.58
2024-02-13T18:43:23.492Z,7.60
2024-02-13T18:48:29.455Z,7.68
2024-02-13T18:53:35.715Z,7.80
2024-02-13T18:58:41.761Z,7.85
2024-02-13T19:03:48.753Z,7.92
2024-02-13T19:08:54.543Z,7.98
2024-02-13T19:14:00.413Z,7.98
2024-02-13T19:19:06.420Z,7.97
2024-02-13T19:24:12.820Z,7.97
2024-02-13T19:29:19.000Z,7.98
2024-02-13T19:34:28.324Z,7.12
2024-02-13T19:39:33.585Z,7.97
2024-02-13T19:44:40.407Z,7.99
2024-02-13T19:49:46.343Z,8.01
2024-02-13T19:54:52.097Z,8.02
2024-02-13T19:59:57.907Z,8.01
2024-02-13T20:05:03.692Z,8.04
2024-02-13T20:10:10.509Z,8.03
2024-02-13T20:15:16.437Z,8.04
2024-02-13T20:20:22.133Z,8.02
2024-02-13T20:25:27.967Z,8.00
2024-02-13T20:30:35.375Z,7.98
2024-02-13T20:35:44.384Z,7.97
2024-02-13T20:40:51.808Z,7.97
2024-02-13T20:45:59.661Z,7.95
2024-02-13T20:51:06.024Z,7.93
2024-02-13T20:56:11.759Z,7.92
2024-02-13T21:01:17.513Z,7.86
2024-02-13T21:06:25.508Z,7.81
2024-02-13T21:11:32.907Z,7.79
2024-02-13T21:16:38.624Z,7.74
2024-02-13T21:22:03.122Z,7.66
2024-02-13T21:27:08.819Z,7.66
2024-02-13T21:32:15.648Z,7.66
2024-02-13T21:37:21.572Z,7.62
2024-02-13T21:42:27.329Z,7.52
2024-02-13T21:47:33.052Z,7.35
2024-02-13T21:52:42.074Z,7.03
2024-02-13T21:57:47.944Z,6.66
2024-02-13T22:02:53.978Z,6.33
2024-02-13T22:07:59.687Z,6.07
2024-02-13T22:13:07.340Z,5.87
2024-02-13T22:18:14.982Z,5.71
2024-02-13T22:23:20.775Z,5.63
2024-02-13T22:28:26.622Z,5.56
2024-02-13T22:33:32.508Z,5.47
2024-02-13T22:38:38.278Z,5.46
2024-02-13T22:43:44.198Z,5.43
2024-02-13T22:48:50.578Z,5.41
2024-02-13T22:53:56.480Z,5.35
2024-02-13T22:59:03.102Z,5.35
2024-02-13T23:04:09.372Z,5.30
2024-02-13T23:09:18.586Z,5.22
2024-02-13T23:14:25.269Z,5.19
2024-02-13T23:19:31.850Z,5.15
2024-02-13T23:24:39.111Z,5.15
2024-02-13T23:29:44.805Z,5.15
2024-02-13T23:34:51.020Z,5.22
2024-02-13T23:39:57.282Z,5.26
2024-02-13T23:45:03.001Z,5.22
2024-02-13T23:50:09.602Z,5.17
2024-02-13T23:55:16.207Z,5.02
